sensor_id;sensor_type;location;lat;lon;timestamp;P1;durP1;ratioP1;P2;durP2;ratioP2
71166;SDS011;58864;45.928;20.078;2024-03-23T00:55:48;65.57;;;27.70;;
71166;SDS011;58864;45.928;20.078;2024-03-23T00:58:14;62.25;;;26.48;;
71166;SDS011;58864;45.928;20.078;2024-03-23T01:00:39;60.40;;;25.48;;
71166;SDS011;58864;45.928;20.078;2024-03-23T01:03:05;49.88;;;23.13;;
71166;SDS011;58864;45.928;20.078;2024-03-23T01:05:30;50.73;;;21.87;;
71166;SDS011;58864;45.928;20.078;2024-03-23T01:07:55;44.53;;;20.23;;
71166;SDS011;58864;45.928;20.078;2024-03-23T01:10:20;49.33;;;20.75;;
71166;SDS011;58864;45.928;20.078;2024-03-23T01:12:47;41.13;;;18.80;;
71166;SDS011;58864;45.928;20.078;2024-03-23T01:15:12;40.97;;;18.55;;
71166;SDS011;58864;45.928;20.078;2024-03-23T01:17:38;43.75;;;19.75;;
71166;SDS011;58864;45.928;20.078;2024-03-23T01:20:03;43.13;;;18.42;;
71166;SDS011;58864;45.928;20.078;2024-03-23T01:22:30;44.83;;;18.20;;
71166;SDS011;58864;45.928;20.078;2024-03-23T01:24:55;45.75;;;19.77;;
71166;SDS011;58864;45.928;20.078;2024-03-23T01:27:20;44.17;;;18.90;;
71166;SDS011;58864;45.928;20.078;2024-03-23T01:29:47;43.23;;;17.77;;
71166;SDS011;58864;45.928;20.078;2024-03-23T01:32:12;44.92;;;18.73;;
71166;SDS011;58864;45.928;20.078;2024-03-23T01:34:37;41.53;;;18.70;;
71166;SDS011;58864;45.928;20.078;2024-03-23T01:37:03;40.13;;;17.57;;
71166;SDS011;58864;45.928;20.078;2024-03-23T01:39:28;40.58;;;17.45;;
71166;SDS011;58864;45.928;20.078;2024-03-23T01:41:55;44.20;;;18.80;;
71166;SDS011;58864;45.928;20.078;2024-03-23T01:44:19;41.13;;;17.75;;
71166;SDS011;58864;45.928;20.078;2024-03-23T01:46:47;39.10;;;18.65;;
71166;SDS011;58864;45.928;20.078;2024-03-23T01:49:12;40.60;;;18.60;;
71166;SDS011;58864;45.928;20.078;2024-03-23T01:51:38;38.55;;;18.65;;
71166;SDS011;58864;45.928;20.078;2024-03-23T01:54:04;39.20;;;18.27;;
71166;SDS011;58864;45.928;20.078;2024-03-23T01:56:30;38.83;;;17.30;;
71166;SDS011;58864;45.928;20.078;2024-03-23T01:58:57;41.63;;;19.17;;
71166;SDS011;58864;45.928;20.078;2024-03-23T02:01:22;40.70;;;19.67;;
71166;SDS011;58864;45.928;20.078;2024-03-23T02:03:48;36.70;;;17.77;;
71166;SDS011;58864;45.928;20.078;2024-03-23T02:06:14;40.25;;;19.92;;
71166;SDS011;58864;45.928;20.078;2024-03-23T02:08:39;38.23;;;19.17;;
71166;SDS011;58864;45.928;20.078;2024-03-23T02:11:05;39.28;;;19.73;;
71166;SDS011;58864;45.928;20.078;2024-03-23T02:13:30;39.15;;;19.63;;
71166;SDS011;58864;45.928;20.078;2024-03-23T02:15:56;41.07;;;20.13;;
71166;SDS011;58864;45.928;20.078;2024-03-23T02:18:21;45.50;;;20.48;;
71166;SDS011;58864;45.928;20.078;2024-03-23T02:20:48;38.13;;;19.13;;
71166;SDS011;58864;45.928;20.078;2024-03-23T02:23:14;38.25;;;20.02;;
71166;SDS011;58864;45.928;20.078;2024-03-23T02:25:40;35.53;;;18.23;;
71166;SDS011;58864;45.928;20.078;2024-03-23T02:28:05;40.50;;;20.17;;
71166;SDS011;58864;45.928;20.078;2024-03-23T02:30:31;34.65;;;17.67;;
71166;SDS011;58864;45.928;20.078;2024-03-23T02:32:56;36.23;;;17.57;;
71166;SDS011;58864;45.928;20.078;2024-03-23T02:35:21;35.13;;;17.07;;
71166;SDS011;58864;45.928;20.078;2024-03-23T02:37:46;34.20;;;16.98;;
71166;SDS011;58864;45.928;20.078;2024-03-23T02:40:15;34.80;;;17.27;;
71166;SDS011;58864;45.928;20.078;2024-03-23T02:42:40;41.15;;;19.70;;
71166;SDS011;58864;45.928;20.078;2024-03-23T02:45:05;40.57;;;20.60;;
71166;SDS011;58864;45.928;20.078;2024-03-23T02:47:31;38.38;;;20.02;;
71166;SDS011;58864;45.928;20.078;2024-03-23T02:49:56;46.08;;;22.80;;
71166;SDS011;58864;45.928;20.078;2024-03-23T02:52:21;47.22;;;22.35;;
71166;SDS011;58864;45.928;20.078;2024-03-23T02:54:47;43.53;;;21.57;;
71166;SDS011;58864;45.928;20.078;2024-03-23T02:57:13;48.15;;;21.20;;
71166;SDS011;58864;45.928;20.078;2024-03-23T02:59:39;44.00;;;22.80;;
71166;SDS011;58864;45.928;20.078;2024-03-23T03:02:04;41.67;;;20.30;;
71166;SDS011;58864;45.928;20.078;2024-03-23T03:04:30;45.58;;;22.80;;
71166;SDS011;58864;45.928;20.078;2024-03-23T03:06:55;42.30;;;22.15;;
71166;SDS011;58864;45.928;20.078;2024-03-23T03:09:21;42.25;;;21.45;;
71166;SDS011;58864;45.928;20.078;2024-03-23T03:11:46;46.90;;;21.83;;
71166;SDS011;58864;45.928;20.078;2024-03-23T03:14:13;47.70;;;22.50;;
71166;SDS011;58864;45.928;20.078;2024-03-23T03:16:38;51.03;;;22.23;;
71166;SDS011;58864;45.928;20.078;2024-03-23T03:19:04;50.80;;;23.08;;
71166;SDS011;58864;45.928;20.078;2024-03-23T03:21:28;43.37;;;22.03;;
71166;SDS011;58864;45.928;20.078;2024-03-23T03:23:54;42.35;;;20.58;;
71166;SDS011;58864;45.928;20.078;2024-03-23T03:26:20;47.63;;;22.88;;
71166;SDS011;58864;45.928;20.078;2024-03-23T03:28:46;45.15;;;21.77;;
71166;SDS011;58864;45.928;20.078;2024-03-23T03:31:14;44.63;;;20.73;;
71166;SDS011;58864;45.928;20.078;2024-03-23T03:33:40;45.38;;;20.88;;
71166;SDS011;58864;45.928;20.078;2024-03-23T03:36:05;49.22;;;22.42;;
71166;SDS011;58864;45.928;20.078;2024-03-23T03:38:31;47.78;;;23.20;;
71166;SDS011;58864;45.928;20.078;2024-03-23T03:40:55;44.07;;;22.63;;
71166;SDS011;58864;45.928;20.078;2024-03-23T03:43:23;51.03;;;22.50;;
71166;SDS011;58864;45.928;20.078;2024-03-23T03:45:51;46.65;;;22.67;;
71166;SDS011;58864;45.928;20.078;2024-03-23T03:48:18;53.77;;;23.47;;
71166;SDS011;58864;45.928;20.078;2024-03-23T03:50:43;50.55;;;22.85;;
71166;SDS011;58864;45.928;20.078;2024-03-23T03:53:09;46.88;;;22.30;;
71166;SDS011;58864;45.928;20.078;2024-03-23T03:55:34;52.42;;;23.45;;
71166;SDS011;58864;45.928;20.078;2024-03-23T03:58:00;50.33;;;23.97;;
71166;SDS011;58864;45.928;20.078;2024-03-23T04:00:24;49.38;;;23.13;;
71166;SDS011;58864;45.928;20.078;2024-03-23T04:02:50;51.15;;;23.85;;
71166;SDS011;58864;45.928;20.078;2024-03-23T04:05:16;46.28;;;22.92;;
71166;SDS011;58864;45.928;20.078;2024-03-23T04:07:43;50.40;;;23.57;;
71166;SDS011;58864;45.928;20.078;2024-03-23T04:10:08;49.90;;;24.02;;
71166;SDS011;58864;45.928;20.078;2024-03-23T04:12:34;45.95;;;22.67;;
71166;SDS011;58864;45.928;20.078;2024-03-23T04:14:58;52.23;;;24.27;;
71166;SDS011;58864;45.928;20.078;2024-03-23T04:17:24;49.22;;;24.02;;
71166;SDS011;58864;45.928;20.078;2024-03-23T04:19:50;48.00;;;22.65;;
71166;SDS011;58864;45.928;20.078;2024-03-23T04:22:17;48.08;;;22.67;;
71166;SDS011;58864;45.928;20.078;2024-03-23T04:24:42;49.88;;;23.00;;
71166;SDS011;58864;45.928;20.078;2024-03-23T04:27:08;45.17;;;21.80;;
71166;SDS011;58864;45.928;20.078;2024-03-23T04:29:33;47.63;;;22.45;;
71166;SDS011;58864;45.928;20.078;2024-03-23T04:31:58;43.33;;;21.60;;
71166;SDS011;58864;45.928;20.078;2024-03-23T04:34:23;46.53;;;21.87;;
71166;SDS011;58864;45.928;20.078;2024-03-23T04:36:49;47.33;;;22.52;;
71166;SDS011;58864;45.928;20.078;2024-03-23T04:39:15;48.58;;;22.08;;
71166;SDS011;58864;45.928;20.078;2024-03-23T04:41:41;49.60;;;21.20;;
71166;SDS011;58864;45.928;20.078;2024-03-23T04:44:07;47.92;;;22.35;;
71166;SDS011;58864;45.928;20.078;2024-03-23T04:46:33;44.25;;;20.75;;
71166;SDS011;58864;45.928;20.078;2024-03-23T04:48:58;44.30;;;21.23;;
71166;SDS011;58864;45.928;20.078;2024-03-23T04:51:24;44.17;;;20.77;;
71166;SDS011;58864;45.928;20.078;2024-03-23T04:53:50;45.93;;;21.57;;
71166;SDS011;58864;45.928;20.078;2024-03-23T04:56:17;42.47;;;22.13;;
71166;SDS011;58864;45.928;20.078;2024-03-23T04:58:43;46.00;;;21.60;;
71166;SDS011;58864;45.928;20.078;2024-03-23T05:01:08;46.58;;;21.45;;
71166;SDS011;58864;45.928;20.078;2024-03-23T05:03:34;46.95;;;22.45;;
71166;SDS011;58864;45.928;20.078;2024-03-23T05:05:58;47.47;;;22.37;;
71166;SDS011;58864;45.928;20.078;2024-03-23T05:08:24;49.30;;;23.67;;
71166;SDS011;58864;45.928;20.078;2024-03-23T05:10:49;50.83;;;24.07;;
71166;SDS011;58864;45.928;20.078;2024-03-23T05:13:16;48.13;;;24.20;;
71166;SDS011;58864;45.928;20.078;2024-03-23T05:15:41;46.78;;;23.67;;
71166;SDS011;58864;45.928;20.078;2024-03-23T05:18:07;49.90;;;22.58;;
71166;SDS011;58864;45.928;20.078;2024-03-23T05:20:32;43.25;;;21.10;;
71166;SDS011;58864;45.928;20.078;2024-03-23T05:22:57;45.60;;;21.90;;
71166;SDS011;58864;45.928;20.078;2024-03-23T05:25:22;45.00;;;22.23;;
71166;SDS011;58864;45.928;20.078;2024-03-23T05:27:48;50.47;;;23.08;;
71166;SDS011;58864;45.928;20.078;2024-03-23T05:30:14;45.33;;;21.50;;
71166;SDS011;58864;45.928;20.078;2024-03-23T05:32:40;46.60;;;22.10;;
71166;SDS011;58864;45.928;20.078;2024-03-23T05:35:06;49.13;;;23.30;;
71166;SDS011;58864;45.928;20.078;2024-03-23T05:37:32;47.90;;;22.83;;
71166;SDS011;58864;45.928;20.078;2024-03-23T05:39:58;45.60;;;22.88;;
71166;SDS011;58864;45.928;20.078;2024-03-23T05:42:23;62.47;;;27.10;;
71166;SDS011;58864;45.928;20.078;2024-03-23T05:44:48;63.97;;;27.65;;
71166;SDS011;58864;45.928;20.078;2024-03-23T05:47:15;50.70;;;24.80;;
71166;SDS011;58864;45.928;20.078;2024-03-23T05:49:40;47.85;;;24.15;;
71166;SDS011;58864;45.928;20.078;2024-03-23T05:52:07;47.23;;;23.63;;
71166;SDS011;58864;45.928;20.078;2024-03-23T05:54:31;49.40;;;24.15;;
71166;SDS011;58864;45.928;20.078;2024-03-23T05:56:57;53.10;;;25.38;;
71166;SDS011;58864;45.928;20.078;2024-03-23T05:59:23;44.20;;;22.50;;
71166;SDS011;58864;45.928;20.078;2024-03-23T06:01:49;50.85;;;24.95;;
71166;SDS011;58864;45.928;20.078;2024-03-23T06:04:15;50.90;;;25.70;;
71166;SDS011;58864;45.928;20.078;2024-03-23T06:06:41;60.53;;;27.80;;
71166;SDS011;58864;45.928;20.078;2024-03-23T06:09:06;55.10;;;26.33;;
71166;SDS011;58864;45.928;20.078;2024-03-23T06:11:31;55.65;;;27.27;;
71166;SDS011;58864;45.928;20.078;2024-03-23T06:13:56;56.30;;;27.07;;
71166;SDS011;58864;45.928;20.078;2024-03-23T06:16:22;51.90;;;25.60;;
71166;SDS011;58864;45.928;20.078;2024-03-23T06:18:48;50.45;;;24.40;;
71166;SDS011;58864;45.928;20.078;2024-03-23T06:21:15;54.20;;;24.67;;
71166;SDS011;58864;45.928;20.078;2024-03-23T06:23:40;60.50;;;24.93;;
71166;SDS011;58864;45.928;20.078;2024-03-23T06:26:06;56.63;;;24.85;;
71166;SDS011;58864;45.928;20.078;2024-03-23T06:28:31;57.00;;;26.00;;
71166;SDS011;58864;45.928;20.078;2024-03-23T06:30:56;50.53;;;25.30;;
71166;SDS011;58864;45.928;20.078;2024-03-23T06:33:21;47.57;;;23.70;;
71166;SDS011;58864;45.928;20.078;2024-03-23T06:35:49;50.55;;;23.83;;
71166;SDS011;58864;45.928;20.078;2024-03-23T06:38:16;56.00;;;24.77;;
71166;SDS011;58864;45.928;20.078;2024-03-23T06:40:41;57.17;;;25.15;;
71166;SDS011;58864;45.928;20.078;2024-03-23T06:43:06;65.43;;;28.60;;
71166;SDS011;58864;45.928;20.078;2024-03-23T06:45:32;61.47;;;27.13;;
71166;SDS011;58864;45.928;20.078;2024-03-23T06:47:57;60.70;;;27.05;;
71166;SDS011;58864;45.928;20.078;2024-03-23T06:50:23;57.93;;;24.57;;
71166;SDS011;58864;45.928;20.078;2024-03-23T06:52:49;49.90;;;22.10;;
71166;SDS011;58864;45.928;20.078;2024-03-23T06:55:16;37.65;;;18.95;;
71166;SDS011;58864;45.928;20.078;2024-03-23T06:57:41;40.60;;;20.08;;
71166;SDS011;58864;45.928;20.078;2024-03-23T07:00:07;36.70;;;19.40;;
71166;SDS011;58864;45.928;20.078;2024-03-23T07:02:34;41.30;;;20.20;;
71166;SDS011;58864;45.928;20.078;2024-03-23T07:04:59;40.25;;;20.10;;
71166;SDS011;58864;45.928;20.078;2024-03-23T07:07:24;41.10;;;19.30;;
71166;SDS011;58864;45.928;20.078;2024-03-23T07:09:51;41.70;;;20.25;;
71166;SDS011;58864;45.928;20.078;2024-03-23T07:12:18;36.10;;;18.30;;
71166;SDS011;58864;45.928;20.078;2024-03-23T07:14:45;37.15;;;17.70;;
71166;SDS011;58864;45.928;20.078;2024-03-23T07:17:09;35.03;;;18.38;;
71166;SDS011;58864;45.928;20.078;2024-03-23T07:19:35;34.55;;;17.80;;
71166;SDS011;58864;45.928;20.078;2024-03-23T07:22:00;32.77;;;17.17;;
71166;SDS011;58864;45.928;20.078;2024-03-23T07:24:26;32.20;;;16.63;;
71166;SDS011;58864;45.928;20.078;2024-03-23T07:26:51;30.65;;;16.10;;
71166;SDS011;58864;45.928;20.078;2024-03-23T07:29:19;28.47;;;14.87;;
71166;SDS011;58864;45.928;20.078;2024-03-23T07:31:44;28.30;;;15.27;;
71166;SDS011;58864;45.928;20.078;2024-03-23T07:34:10;31.92;;;16.08;;
71166;SDS011;58864;45.928;20.078;2024-03-23T07:36:35;27.65;;;14.98;;
71166;SDS011;58864;45.928;20.078;2024-03-23T07:39:00;30.37;;;15.43;;
71166;SDS011;58864;45.928;20.078;2024-03-23T07:41:25;27.75;;;14.95;;
71166;SDS011;58864;45.928;20.078;2024-03-23T07:43:53;31.05;;;16.10;;
71166;SDS011;58864;45.928;20.078;2024-03-23T07:46:20;26.67;;;15.52;;
71166;SDS011;58864;45.928;20.078;2024-03-23T07:48:46;32.10;;;15.03;;
71166;SDS011;58864;45.928;20.078;2024-03-23T07:51:15;27.20;;;14.35;;
71166;SDS011;58864;45.928;20.078;2024-03-23T07:53:42;26.42;;;14.85;;
71166;SDS011;58864;45.928;20.078;2024-03-23T07:56:08;30.67;;;14.80;;
71166;SDS011;58864;45.928;20.078;2024-03-23T07:58:35;26.65;;;14.55;;
71166;SDS011;58864;45.928;20.078;2024-03-23T08:01:03;24.30;;;13.77;;
71166;SDS011;58864;45.928;20.078;2024-03-23T08:03:31;27.20;;;13.38;;
71166;SDS011;58864;45.928;20.078;2024-03-23T08:05:55;24.60;;;13.10;;
71166;SDS011;58864;45.928;20.078;2024-03-23T08:08:21;22.55;;;12.43;;
71166;SDS011;58864;45.928;20.078;2024-03-23T08:10:49;26.60;;;12.40;;
71166;SDS011;58864;45.928;20.078;2024-03-23T08:13:15;23.52;;;12.30;;
71166;SDS011;58864;45.928;20.078;2024-03-23T08:15:45;23.55;;;12.25;;
71166;SDS011;58864;45.928;20.078;2024-03-23T08:18:12;25.35;;;13.15;;
71166;SDS011;58864;45.928;20.078;2024-03-23T08:20:38;26.08;;;12.52;;
71166;SDS011;58864;45.928;20.078;2024-03-23T08:23:05;24.70;;;12.77;;
71166;SDS011;58864;45.928;20.078;2024-03-23T08:25:30;20.75;;;11.20;;
71166;SDS011;58864;45.928;20.078;2024-03-23T08:27:57;20.13;;;11.40;;
71166;SDS011;58864;45.928;20.078;2024-03-23T08:30:21;21.23;;;11.30;;
71166;SDS011;58864;45.928;20.078;2024-03-23T08:32:47;25.55;;;12.77;;
71166;SDS011;58864;45.928;20.078;2024-03-23T08:35:12;25.33;;;12.27;;
71166;SDS011;58864;45.928;20.078;2024-03-23T08:37:40;21.58;;;11.43;;
71166;SDS011;58864;45.928;20.078;2024-03-23T08:40:08;23.20;;;11.30;;
71166;SDS011;58864;45.928;20.078;2024-03-23T08:42:43;26.75;;;11.63;;
71166;SDS011;58864;45.928;20.078;2024-03-23T08:45:10;19.33;;;10.35;;
71166;SDS011;58864;45.928;20.078;2024-03-23T08:47:35;19.03;;;9.93;;
71166;SDS011;58864;45.928;20.078;2024-03-23T08:50:00;18.90;;;9.30;;
71166;SDS011;58864;45.928;20.078;2024-03-23T08:52:26;20.88;;;9.88;;
71166;SDS011;58864;45.928;20.078;2024-03-23T08:54:54;19.45;;;9.27;;
71166;SDS011;58864;45.928;20.078;2024-03-23T08:57:20;21.83;;;9.17;;
71166;SDS011;58864;45.928;20.078;2024-03-23T08:59:44;18.25;;;8.75;;
71166;SDS011;58864;45.928;20.078;2024-03-23T09:02:10;22.67;;;9.48;;
71166;SDS011;58864;45.928;20.078;2024-03-23T09:04:35;16.20;;;8.27;;
71166;SDS011;58864;45.928;20.078;2024-03-23T09:07:01;18.48;;;8.88;;
71166;SDS011;58864;45.928;20.078;2024-03-23T09:09:26;20.30;;;10.15;;
71166;SDS011;58864;45.928;20.078;2024-03-23T09:11:53;15.02;;;7.57;;
71166;SDS011;58864;45.928;20.078;2024-03-23T09:14:17;13.57;;;6.77;;
71166;SDS011;58864;45.928;20.078;2024-03-23T09:16:44;15.85;;;7.30;;
71166;SDS011;58864;45.928;20.078;2024-03-23T09:19:08;15.57;;;7.85;;
71166;SDS011;58864;45.928;20.078;2024-03-23T09:21:34;14.07;;;6.80;;
71166;SDS011;58864;45.928;20.078;2024-03-23T09:23:59;13.17;;;6.13;;
71166;SDS011;58864;45.928;20.078;2024-03-23T09:26:25;11.98;;;6.97;;
71166;SDS011;58864;45.928;20.078;2024-03-23T09:28:51;13.13;;;6.82;;
71166;SDS011;58864;45.928;20.078;2024-03-23T09:31:17;16.00;;;6.90;;
71166;SDS011;58864;45.928;20.078;2024-03-23T09:33:42;11.70;;;5.83;;
71166;SDS011;58864;45.928;20.078;2024-03-23T09:36:08;13.82;;;6.88;;
71166;SDS011;58864;45.928;20.078;2024-03-23T09:38:33;13.98;;;6.63;;
71166;SDS011;58864;45.928;20.078;2024-03-23T09:40:59;14.55;;;6.78;;
71166;SDS011;58864;45.928;20.078;2024-03-23T09:43:24;11.55;;;5.70;;
71166;SDS011;58864;45.928;20.078;2024-03-23T09:45:52;15.47;;;6.20;;
71166;SDS011;58864;45.928;20.078;2024-03-23T09:48:17;16.85;;;6.93;;
71166;SDS011;58864;45.928;20.078;2024-03-23T09:50:44;11.88;;;6.20;;
71166;SDS011;58864;45.928;20.078;2024-03-23T09:53:09;11.80;;;6.22;;
71166;SDS011;58864;45.928;20.078;2024-03-23T09:55:36;14.52;;;6.63;;
71166;SDS011;58864;45.928;20.078;2024-03-23T09:58:02;18.67;;;7.53;;
71166;SDS011;58864;45.928;20.078;2024-03-23T10:00:29;13.68;;;6.22;;
71166;SDS011;58864;45.928;20.078;2024-03-23T10:02:56;12.88;;;6.75;;
71166;SDS011;58864;45.928;20.078;2024-03-23T10:05:22;14.13;;;6.40;;
71166;SDS011;58864;45.928;20.078;2024-03-23T10:07:47;12.17;;;6.80;;
71166;SDS011;58864;45.928;20.078;2024-03-23T10:10:15;10.82;;;5.80;;
71166;SDS011;58864;45.928;20.078;2024-03-23T10:12:43;11.23;;;5.55;;
71166;SDS011;58864;45.928;20.078;2024-03-23T10:15:12;13.05;;;6.47;;
71166;SDS011;58864;45.928;20.078;2024-03-23T10:17:40;12.35;;;6.43;;
71166;SDS011;58864;45.928;20.078;2024-03-23T10:20:09;12.93;;;6.80;;
71166;SDS011;58864;45.928;20.078;2024-03-23T10:22:37;13.25;;;6.45;;
71166;SDS011;58864;45.928;20.078;2024-03-23T10:25:07;12.48;;;6.55;;
71166;SDS011;58864;45.928;20.078;2024-03-23T10:27:32;12.88;;;6.30;;
71166;SDS011;58864;45.928;20.078;2024-03-23T10:29:59;13.10;;;6.60;;
71166;SDS011;58864;45.928;20.078;2024-03-23T10:32:32;10.80;;;5.67;;
71166;SDS011;58864;45.928;20.078;2024-03-23T10:34:59;12.60;;;6.05;;
71166;SDS011;58864;45.928;20.078;2024-03-23T10:37:40;13.25;;;6.15;;
71166;SDS011;58864;45.928;20.078;2024-03-23T10:40:07;17.55;;;6.68;;
71166;SDS011;58864;45.928;20.078;2024-03-23T10:42:33;14.85;;;6.22;;
71166;SDS011;58864;45.928;20.078;2024-03-23T10:44:58;11.27;;;6.20;;
71166;SDS011;58864;45.928;20.078;2024-03-23T10:47:24;11.10;;;5.82;;
71166;SDS011;58864;45.928;20.078;2024-03-23T10:49:50;15.00;;;6.00;;
71166;SDS011;58864;45.928;20.078;2024-03-23T10:52:16;15.00;;;5.88;;
71166;SDS011;58864;45.928;20.078;2024-03-23T10:54:42;11.17;;;5.47;;
71166;SDS011;58864;45.928;20.078;2024-03-23T10:57:10;11.48;;;5.40;;
71166;SDS011;58864;45.928;20.078;2024-03-23T10:59:38;10.93;;;5.18;;
71166;SDS011;58864;45.928;20.078;2024-03-23T11:02:04;9.57;;;4.57;;
71166;SDS011;58864;45.928;20.078;2024-03-23T11:04:32;13.02;;;5.40;;
71166;SDS011;58864;45.928;20.078;2024-03-23T11:06:57;10.00;;;5.53;;
71166;SDS011;58864;45.928;20.078;2024-03-23T11:09:40;12.80;;;5.40;;
71166;SDS011;58864;45.928;20.078;2024-03-23T11:12:24;12.95;;;5.90;;
71166;SDS011;58864;45.928;20.078;2024-03-23T11:14:52;9.77;;;5.25;;
71166;SDS011;58864;45.928;20.078;2024-03-23T11:17:17;10.25;;;5.00;;
71166;SDS011;58864;45.928;20.078;2024-03-23T11:19:43;8.87;;;5.00;;
71166;SDS011;58864;45.928;20.078;2024-03-23T11:22:08;11.23;;;4.90;;
71166;SDS011;58864;45.928;20.078;2024-03-23T11:24:34;10.98;;;4.45;;
71166;SDS011;58864;45.928;20.078;2024-03-23T11:27:00;11.43;;;4.10;;
71166;SDS011;58864;45.928;20.078;2024-03-23T11:29:28;9.55;;;4.15;;
71166;SDS011;58864;45.928;20.078;2024-03-23T11:31:53;10.88;;;4.07;;
71166;SDS011;58864;45.928;20.078;2024-03-23T11:34:19;9.90;;;4.18;;
71166;SDS011;58864;45.928;20.078;2024-03-23T11:36:44;8.57;;;4.13;;
71166;SDS011;58864;45.928;20.078;2024-03-23T11:39:13;9.03;;;4.07;;
71166;SDS011;58864;45.928;20.078;2024-03-23T11:41:49;11.32;;;3.60;;
71166;SDS011;58864;45.928;20.078;2024-03-23T11:44:18;12.30;;;4.50;;
71166;SDS011;58864;45.928;20.078;2024-03-23T11:46:43;10.15;;;3.70;;
71166;SDS011;58864;45.928;20.078;2024-03-23T11:49:19;11.50;;;3.53;;
71166;SDS011;58864;45.928;20.078;2024-03-23T11:51:46;9.53;;;3.50;;
71166;SDS011;58864;45.928;20.078;2024-03-23T11:54:12;9.70;;;3.85;;
71166;SDS011;58864;45.928;20.078;2024-03-23T11:56:36;9.45;;;4.13;;
71166;SDS011;58864;45.928;20.078;2024-03-23T11:59:03;11.55;;;3.95;;
71166;SDS011;58864;45.928;20.078;2024-03-23T12:01:29;8.17;;;3.90;;
71166;SDS011;58864;45.928;20.078;2024-03-23T12:03:55;7.47;;;3.60;;
71166;SDS011;58864;45.928;20.078;2024-03-23T12:06:19;8.18;;;3.40;;
71166;SDS011;58864;45.928;20.078;2024-03-23T12:08:45;7.88;;;4.00;;
71166;SDS011;58864;45.928;20.078;2024-03-23T12:11:12;8.77;;;3.93;;
71166;SDS011;58864;45.928;20.078;2024-03-23T12:13:39;6.50;;;3.25;;
71166;SDS011;58864;45.928;20.078;2024-03-23T12:16:09;8.30;;;3.70;;
71166;SDS011;58864;45.928;20.078;2024-03-23T12:18:37;7.25;;;3.33;;
71166;SDS011;58864;45.928;20.078;2024-03-23T12:21:01;7.05;;;3.60;;
71166;SDS011;58864;45.928;20.078;2024-03-23T12:23:28;6.83;;;2.80;;
71166;SDS011;58864;45.928;20.078;2024-03-23T12:25:52;6.85;;;3.10;;
71166;SDS011;58864;45.928;20.078;2024-03-23T12:28:18;9.85;;;3.20;;
71166;SDS011;58864;45.928;20.078;2024-03-23T12:30:43;6.83;;;2.83;;
71166;SDS011;58864;45.928;20.078;2024-03-23T12:33:09;7.60;;;3.17;;
71166;SDS011;58864;45.928;20.078;2024-03-23T12:35:35;7.30;;;3.35;;
71166;SDS011;58864;45.928;20.078;2024-03-23T12:38:01;7.47;;;2.80;;
71166;SDS011;58864;45.928;20.078;2024-03-23T12:40:26;9.63;;;3.20;;
71166;SDS011;58864;45.928;20.078;2024-03-23T12:42:52;7.07;;;3.33;;
71166;SDS011;58864;45.928;20.078;2024-03-23T12:45:16;6.82;;;3.50;;
71166;SDS011;58864;45.928;20.078;2024-03-23T12:47:42;6.00;;;2.70;;
71166;SDS011;58864;45.928;20.078;2024-03-23T12:50:07;5.72;;;2.65;;
71166;SDS011;58864;45.928;20.078;2024-03-23T12:52:35;6.13;;;2.60;;
71166;SDS011;58864;45.928;20.078;2024-03-23T12:55:00;6.65;;;2.80;;
71166;SDS011;58864;45.928;20.078;2024-03-23T12:57:27;8.23;;;2.97;;
71166;SDS011;58864;45.928;20.078;2024-03-23T12:59:52;6.90;;;3.07;;
71166;SDS011;58864;45.928;20.078;2024-03-23T13:02:18;7.45;;;2.83;;
71166;SDS011;58864;45.928;20.078;2024-03-23T13:04:43;7.13;;;2.72;;
71166;SDS011;58864;45.928;20.078;2024-03-23T13:07:09;6.03;;;2.70;;
71166;SDS011;58864;45.928;20.078;2024-03-23T13:09:36;11.93;;;2.77;;
71166;SDS011;58864;45.928;20.078;2024-03-23T13:12:02;7.55;;;2.60;;
71166;SDS011;58864;45.928;20.078;2024-03-23T13:14:27;7.07;;;2.70;;
71166;SDS011;58864;45.928;20.078;2024-03-23T13:16:53;7.82;;;2.70;;
71166;SDS011;58864;45.928;20.078;2024-03-23T13:19:18;6.90;;;2.73;;
71166;SDS011;58864;45.928;20.078;2024-03-23T13:21:44;6.55;;;3.03;;
71166;SDS011;58864;45.928;20.078;2024-03-23T13:24:09;6.35;;;2.90;;
71166;SDS011;58864;45.928;20.078;2024-03-23T13:26:36;6.28;;;2.67;;
71166;SDS011;58864;45.928;20.078;2024-03-23T13:29:01;6.57;;;2.73;;
71166;SDS011;58864;45.928;20.078;2024-03-23T13:31:27;6.80;;;2.53;;
71166;SDS011;58864;45.928;20.078;2024-03-23T13:33:51;6.03;;;2.70;;
71166;SDS011;58864;45.928;20.078;2024-03-23T13:36:17;5.82;;;2.70;;
71166;SDS011;58864;45.928;20.078;2024-03-23T13:38:43;6.33;;;3.07;;
71166;SDS011;58864;45.928;20.078;2024-03-23T13:41:08;5.63;;;2.97;;
71166;SDS011;58864;45.928;20.078;2024-03-23T13:43:37;9.57;;;3.08;;
71166;SDS011;58864;45.928;20.078;2024-03-23T13:46:04;8.20;;;3.05;;
71166;SDS011;58864;45.928;20.078;2024-03-23T13:48:29;6.37;;;3.00;;
71166;SDS011;58864;45.928;20.078;2024-03-23T13:50:58;6.07;;;2.92;;
71166;SDS011;58864;45.928;20.078;2024-03-23T13:53:23;9.57;;;3.22;;
71166;SDS011;58864;45.928;20.078;2024-03-23T13:55:49;12.15;;;5.20;;
71166;SDS011;58864;45.928;20.078;2024-03-23T13:58:14;6.77;;;2.73;;
71166;SDS011;58864;45.928;20.078;2024-03-23T14:00:41;6.15;;;2.72;;
71166;SDS011;58864;45.928;20.078;2024-03-23T14:03:07;6.72;;;3.13;;
71166;SDS011;58864;45.928;20.078;2024-03-23T14:05:32;8.88;;;3.22;;
71166;SDS011;58864;45.928;20.078;2024-03-23T14:07:57;8.90;;;3.10;;
71166;SDS011;58864;45.928;20.078;2024-03-23T14:10:23;6.40;;;2.78;;
71166;SDS011;58864;45.928;20.078;2024-03-23T14:12:48;6.20;;;2.70;;
71166;SDS011;58864;45.928;20.078;2024-03-23T14:15:14;6.47;;;2.75;;
71166;SDS011;58864;45.928;20.078;2024-03-23T14:17:40;7.73;;;2.40;;
71166;SDS011;58864;45.928;20.078;2024-03-23T14:20:06;6.20;;;2.25;;
71166;SDS011;58864;45.928;20.078;2024-03-23T14:22:35;5.72;;;2.22;;
71166;SDS011;58864;45.928;20.078;2024-03-23T14:25:01;7.97;;;2.92;;
71166;SDS011;58864;45.928;20.078;2024-03-23T14:27:25;9.93;;;4.10;;
71166;SDS011;58864;45.928;20.078;2024-03-23T14:29:51;9.40;;;3.20;;
71166;SDS011;58864;45.928;20.078;2024-03-23T14:32:16;7.60;;;3.25;;
71166;SDS011;58864;45.928;20.078;2024-03-23T14:34:43;7.20;;;3.00;;
71166;SDS011;58864;45.928;20.078;2024-03-23T14:37:08;6.17;;;2.77;;
71166;SDS011;58864;45.928;20.078;2024-03-23T14:39:34;9.35;;;2.92;;
71166;SDS011;58864;45.928;20.078;2024-03-23T14:41:59;7.13;;;3.10;;
71166;SDS011;58864;45.928;20.078;2024-03-23T14:44:25;8.90;;;3.05;;
71166;SDS011;58864;45.928;20.078;2024-03-23T14:46:50;6.37;;;2.90;;
71166;SDS011;58864;45.928;20.078;2024-03-23T14:49:15;6.80;;;3.10;;
71166;SDS011;58864;45.928;20.078;2024-03-23T14:51:42;6.20;;;2.53;;
71166;SDS011;58864;45.928;20.078;2024-03-23T14:54:08;9.93;;;2.80;;
71166;SDS011;58864;45.928;20.078;2024-03-23T14:56:32;7.30;;;2.80;;
71166;SDS011;58864;45.928;20.078;2024-03-23T14:58:59;8.65;;;2.90;;
71166;SDS011;58864;45.928;20.078;2024-03-23T15:01:23;10.35;;;3.15;;
71166;SDS011;58864;45.928;20.078;2024-03-23T15:03:49;7.65;;;2.95;;
71166;SDS011;58864;45.928;20.078;2024-03-23T15:06:17;7.33;;;3.03;;